createdAt,value
2019-02-28T00:01:43.198Z,26.80
2019-02-28T00:04:19.100Z,28.33
2019-02-28T00:06:54.061Z,26.80
2019-02-28T00:09:28.837Z,26.87
2019-02-28T00:12:06.291Z,28.30
2019-02-28T00:14:41.347Z,28.17
2019-02-28T00:17:16.245Z,28.40
2019-02-28T00:19:51.124Z,29.40
2019-02-28T00:22:26.023Z,28.17
2019-02-28T00:25:01.197Z,27.70
2019-02-28T00:27:37.403Z,28.67
2019-02-28T00:30:12.407Z,28.67
2019-02-28T00:32:47.285Z,29.17
2019-02-28T00:35:22.561Z,28.30
2019-02-28T00:37:57.520Z,28.60
2019-02-28T00:40:32.683Z,26.40
2019-02-28T00:43:08.935Z,27.27
2019-02-28T00:45:43.805Z,27.53
2019-02-28T00:48:21.725Z,30.10
2019-02-28T00:50:55.180Z,29.10
2019-02-28T00:53:30.079Z,30.40
2019-02-28T00:56:04.845Z,27.47
2019-02-28T00:58:39.769Z,30.73
2019-02-28T01:01:14.539Z,30.00
2019-02-28T01:03:49.512Z,30.70
2019-02-28T01:06:24.273Z,31.10
2019-02-28T01:08:59.175Z,31.50
2019-02-28T01:11:34.411Z,31.13
2019-02-28T01:14:09.313Z,29.27
2019-02-28T01:16:44.224Z,32.10
2019-02-28T01:19:19.146Z,32.77
2019-02-28T01:21:55.387Z,31.10
2019-02-28T01:24:34.542Z,29.90
2019-02-28T01:27:09.545Z,31.13
2019-02-28T01:29:45.256Z,30.53
2019-02-28T01:32:20.063Z,29.73
2019-02-28T01:34:55.332Z,30.53
2019-02-28T01:37:30.245Z,28.03
2019-02-28T01:40:05.819Z,29.93
2019-02-28T01:42:40.719Z,30.83
2019-02-28T01:45:15.759Z,28.20
2019-02-28T01:47:51.789Z,28.23
2019-02-28T01:50:29.680Z,29.67
2019-02-28T01:53:03.806Z,30.77
2019-02-28T01:55:38.629Z,30.33
2019-02-28T01:58:16.591Z,30.43
2019-02-28T02:00:50.216Z,30.80
2019-02-28T02:03:41.696Z,31.50
2019-02-28T02:06:16.611Z,31.53
2019-02-28T02:08:52.460Z,33.10
2019-02-28T02:11:27.349Z,32.27
2019-02-28T02:14:04.116Z,32.40
2019-02-28T02:16:39.042Z,34.30
2019-02-28T02:19:17.482Z,34.97
2019-02-28T02:21:50.442Z,34.87
2019-02-28T02:24:27.879Z,32.80
2019-02-28T02:27:01.971Z,32.40
2019-02-28T02:29:37.164Z,33.73
2019-02-28T02:32:12.153Z,34.30
2019-02-28T02:34:47.727Z,35.40
2019-02-28T02:37:26.474Z,33.73
2019-02-28T02:39:59.286Z,36.67
2019-02-28T02:42:34.286Z,35.40
2019-02-28T02:45:10.655Z,34.30
2019-02-28T02:47:45.526Z,34.63
2019-02-28T02:50:22.151Z,38.43
2019-02-28T02:52:57.095Z,35.83
2019-02-28T02:55:31.972Z,36.17
2019-02-28T02:58:06.772Z,36.17
2019-02-28T03:00:41.630Z,37.37
2019-02-28T03:03:16.564Z,36.27
2019-02-28T03:05:51.448Z,35.60
2019-02-28T03:08:26.569Z,35.27
2019-02-28T03:11:01.494Z,36.63
2019-02-28T03:13:41.850Z,34.53
2019-02-28T03:16:13.008Z,34.40
2019-02-28T03:18:47.964Z,37.33
2019-02-28T03:21:22.897Z,36.20
2019-02-28T03:23:57.885Z,37.57
2019-02-28T03:26:32.927Z,36.03
2019-02-28T03:29:08.930Z,35.50
2019-02-28T03:31:54.541Z,37.00
2019-02-28T03:34:20.466Z,36.07
2019-02-28T03:36:57.578Z,36.43
2019-02-28T03:39:32.840Z,38.37
2019-02-28T03:42:07.635Z,36.57
2019-02-28T03:44:42.713Z,38.37
2019-02-28T03:47:22.668Z,37.90
2019-02-28T03:49:54.070Z,38.30
2019-02-28T03:52:29.107Z,38.03
2019-02-28T03:55:04.748Z,38.50
2019-02-28T03:57:39.627Z,39.80
2019-02-28T04:00:19.283Z,40.30
2019-02-28T04:02:58.719Z,39.67
2019-02-28T04:05:32.471Z,42.33
2019-02-28T04:08:07.402Z,41.93
2019-02-28T04:10:42.352Z,40.30
2019-02-28T04:13:19.167Z,37.33
2019-02-28T04:16:08.346Z,42.60
2019-02-28T04:18:44.192Z,36.07
2019-02-28T04:21:17.518Z,40.90
2019-02-28T04:23:55.829Z,41.20
2019-02-28T04:26:33.196Z,40.40
2019-02-28T04:29:10.546Z,38.87
2019-02-28T04:31:46.808Z,38.87
2019-02-28T04:34:21.669Z,40.23
2019-02-28T04:36:56.464Z,41.03
2019-02-28T04:39:31.328Z,43.73
2019-02-28T04:42:07.924Z,42.93
2019-02-28T04:44:42.880Z,42.70
2019-02-28T04:47:17.754Z,40.80
2019-02-28T04:49:53.530Z,39.73
2019-02-28T04:52:30.133Z,42.33
2019-02-28T04:55:05.151Z,42.80
2019-02-28T04:57:39.957Z,43.77
2019-02-28T05:00:14.930Z,41.77
2019-02-28T05:02:53.719Z,41.47
2019-02-28T05:05:26.300Z,42.60
2019-02-28T05:08:04.990Z,41.37
2019-02-28T05:10:38.280Z,42.00
2019-02-28T05:13:14.366Z,40.37
2019-02-28T05:15:49.956Z,42.50
2019-02-28T05:18:27.600Z,41.50
2019-02-28T05:21:01.690Z,46.23
2019-02-28T05:23:41.608Z,49.23
2019-02-28T05:26:16.396Z,42.23
2019-02-28T05:28:52.170Z,44.77
2019-02-28T05:31:28.054Z,43.90
2019-02-28T05:34:03.032Z,47.37
2019-02-28T05:36:38.805Z,46.67
2019-02-28T05:39:13.804Z,47.60
2019-02-28T05:41:49.459Z,47.00
2019-02-28T05:44:24.990Z,47.13
2019-02-28T05:46:59.882Z,43.00
2019-02-28T05:49:34.838Z,42.90
2019-02-28T05:52:09.620Z,43.50
2019-02-28T05:54:47.241Z,46.63
2019-02-28T05:57:21.169Z,43.50
2019-02-28T06:00:01.359Z,43.87
2019-02-28T06:02:32.816Z,46.37
2019-02-28T06:05:08.421Z,44.87
2019-02-28T06:07:44.700Z,43.70
2019-02-28T06:10:23.519Z,42.87
2019-02-28T06:12:56.184Z,44.50
2019-02-28T06:15:31.096Z,43.43
2019-02-28T06:18:05.990Z,43.60
2019-02-28T06:20:40.945Z,44.70
2019-02-28T06:23:15.857Z,41.83
2019-02-28T06:25:50.761Z,45.73
2019-02-28T06:28:27.637Z,44.73
2019-02-28T06:31:02.256Z,43.37
2019-02-28T06:33:37.208Z,43.20
2019-02-28T06:36:12.110Z,44.63
2019-02-28T06:38:46.998Z,44.97
2019-02-28T06:41:21.944Z,45.20
2019-02-28T06:43:56.850Z,44.70
2019-02-28T06:46:31.849Z,43.13
2019-02-28T06:49:07.211Z,46.30
2019-02-28T06:51:42.609Z,44.80
2019-02-28T06:54:17.578Z,46.03
2019-02-28T06:56:54.109Z,43.33
2019-02-28T06:59:30.246Z,44.07
2019-02-28T07:02:05.354Z,44.37
2019-02-28T07:04:45.458Z,43.53
2019-02-28T07:07:26.159Z,44.80
2019-02-28T07:10:02.470Z,43.93
2019-02-28T07:12:42.872Z,42.87
2019-02-28T07:15:23.765Z,43.93
2019-02-28T07:17:54.688Z,43.63
2019-02-28T07:20:29.800Z,42.93
2019-02-28T07:23:04.908Z,40.00
2019-02-28T07:25:44.223Z,40.47
2019-02-28T07:28:19.654Z,42.73
2019-02-28T07:30:54.478Z,43.40
2019-02-28T07:33:31.880Z,40.67
2019-02-28T07:36:09.571Z,41.33
2019-02-28T07:38:43.803Z,42.13
2019-02-28T07:41:20.262Z,42.47
2019-02-28T07:43:55.257Z,43.47
2019-02-28T07:46:33.550Z,44.20
2019-02-28T07:49:10.018Z,41.27
2019-02-28T07:51:45.970Z,42.47
2019-02-28T07:54:20.916Z,43.03
2019-02-28T07:56:58.406Z,42.40
2019-02-28T07:59:40.785Z,42.10
2019-02-28T08:02:15.792Z,43.03
2019-02-28T08:04:54.478Z,43.33
2019-02-28T08:07:36.294Z,41.10
2019-02-28T08:10:18.691Z,45.33
2019-02-28T08:12:54.562Z,42.63
2019-02-28T08:15:30.710Z,44.23
2019-02-28T08:18:08.220Z,43.60
2019-02-28T08:20:43.256Z,45.07
2019-02-28T08:23:18.340Z,45.70
2019-02-28T08:25:53.248Z,46.00
2019-02-28T08:28:35.892Z,48.00
2019-02-28T08:31:07.824Z,46.13
2019-02-28T08:33:42.841Z,47.57
2019-02-28T08:36:17.830Z,46.30
2019-02-28T08:38:53.290Z,43.90
2019-02-28T08:41:28.319Z,46.07
2019-02-28T08:44:03.290Z,48.13
2019-02-28T08:46:38.262Z,47.93
2019-02-28T08:49:13.185Z,51.80
2019-02-28T08:51:48.110Z,48.83
2019-02-28T08:54:27.228Z,49.90
2019-02-28T08:56:59.784Z,47.13
2019-02-28T08:59:36.071Z,49.67
2019-02-28T09:02:11.042Z,49.67
2019-02-28T09:04:47.913Z,51.50
2019-02-28T09:07:23.371Z,50.93
2019-02-28T09:09:58.410Z,52.17
2019-02-28T09:12:34.122Z,53.07
2019-02-28T09:15:10.689Z,54.23
2019-02-28T09:17:46.958Z,48.90
2019-02-28T09:20:22.919Z,53.03
2019-02-28T09:23:01.657Z,51.93
2019-02-28T09:25:34.414Z,53.97
2019-02-28T09:28:13.111Z,55.97
2019-02-28T09:30:47.121Z,51.10
2019-02-28T09:33:23.415Z,52.40
2019-02-28T09:35:58.644Z,51.33
2019-02-28T09:38:36.087Z,53.93
2019-02-28T09:41:12.799Z,49.70
2019-02-28T09:43:47.678Z,51.93
2019-02-28T09:46:24.123Z,50.10
2019-02-28T09:48:59.987Z,50.30
2019-02-28T09:51:35.031Z,52.10
2019-02-28T09:54:35.571Z,47.70
2019-02-28T09:57:10.493Z,57.63
2019-02-28T09:59:45.347Z,56.30
2019-02-28T10:02:20.643Z,56.17
2019-02-28T10:04:57.314Z,54.50
2019-02-28T10:07:33.104Z,53.57
2019-02-28T10:10:11.309Z,55.03
2019-02-28T10:12:46.820Z,49.47
2019-02-28T10:15:22.737Z,49.67
2019-02-28T10:18:00.738Z,49.07
2019-02-28T10:20:34.414Z,52.10
2019-02-28T10:23:09.318Z,48.07
2019-02-28T10:25:44.221Z,49.67
2019-02-28T10:28:19.500Z,49.30
2019-02-28T10:30:54.404Z,50.60
2019-02-28T10:33:29.762Z,49.70
2019-02-28T10:36:05.637Z,48.60
2019-02-28T10:38:40.647Z,50.70
2019-02-28T10:41:15.533Z,50.93
2019-02-28T10:43:54.787Z,51.97
2019-02-28T10:46:27.115Z,51.70
2019-02-28T10:49:01.989Z,55.80
2019-02-28T10:51:36.927Z,55.07
2019-02-28T10:54:14.584Z,50.90
2019-02-28T10:56:48.479Z,45.77
2019-02-28T10:59:24.392Z,44.37
2019-02-28T11:01:59.964Z,46.30
2019-02-28T11:04:36.127Z,48.40
2019-02-28T11:07:11.219Z,48.23
2019-02-28T11:09:46.167Z,46.67
2019-02-28T11:12:23.715Z,49.20
2019-02-28T11:14:58.025Z,47.90
2019-02-28T11:17:34.305Z,42.90
2019-02-28T11:20:21.845Z,48.90
2019-02-28T11:22:48.497Z,46.80
2019-02-28T11:25:26.128Z,42.60
2019-02-28T11:28:01.186Z,43.40
2019-02-28T11:30:36.760Z,43.63
2019-02-28T11:33:11.924Z,44.90
2019-02-28T11:35:48.055Z,42.87
2019-02-28T11:38:22.965Z,44.40
2019-02-28T11:40:57.965Z,43.60
2019-02-28T11:43:38.361Z,45.23
2019-02-28T11:46:12.509Z,43.10
2019-02-28T11:48:47.383Z,37.93
2019-02-28T11:51:22.407Z,39.67
2019-02-28T11:53:58.073Z,40.10
2019-02-28T11:56:34.612Z,39.30
2019-02-28T11:59:10.391Z,36.97
2019-02-28T12:01:47.504Z,39.90
2019-02-28T12:04:22.153Z,36.83
2019-02-28T12:06:57.472Z,37.87
2019-02-28T12:09:34.146Z,38.10
2019-02-28T12:12:10.439Z,39.67
2019-02-28T12:14:47.958Z,39.23
2019-02-28T12:17:25.574Z,42.17
2019-02-28T12:20:00.633Z,41.60
2019-02-28T12:22:36.939Z,38.43
2019-02-28T12:25:14.236Z,41.00
2019-02-28T12:27:49.255Z,41.70
2019-02-28T12:30:26.799Z,45.67
2019-02-28T12:33:01.794Z,43.97
2019-02-28T12:35:40.368Z,46.83
2019-02-28T12:38:13.339Z,46.30
2019-02-28T12:40:49.496Z,44.30
2019-02-28T12:43:24.693Z,45.40
2019-02-28T12:46:00.153Z,45.50
2019-02-28T12:48:37.441Z,44.17
2019-02-28T12:51:12.875Z,45.30
2019-02-28T12:53:47.910Z,45.17
2019-02-28T12:56:22.867Z,43.87
2019-02-28T12:58:57.705Z,44.43
2019-02-28T13:01:34.367Z,46.57
2019-02-28T13:04:09.611Z,45.40
2019-02-28T13:06:44.510Z,43.10
2019-02-28T13:09:20.297Z,46.67
2019-02-28T13:11:55.117Z,46.80
2019-02-28T13:14:30.089Z,47.50
2019-02-28T13:17:05.123Z,42.40
2019-02-28T13:19:41.468Z,42.53
2019-02-28T13:22:18.901Z,42.07
2019-02-28T13:24:53.006Z,40.07
2019-02-28T13:27:28.008Z,36.60
2019-02-28T13:30:05.514Z,37.30
2019-02-28T13:32:40.170Z,36.47
2019-02-28T13:35:18.006Z,39.60
2019-02-28T13:37:53.078Z,38.57
2019-02-28T13:40:28.138Z,34.40
2019-02-28T13:43:06.025Z,34.20
2019-02-28T13:45:40.980Z,35.70
2019-02-28T13:48:25.430Z,33.37
2019-02-28T13:50:52.545Z,36.90
2019-02-28T13:53:30.586Z,35.47
2019-02-28T13:56:05.027Z,37.20
2019-02-28T13:58:40.114Z,37.43
2019-02-28T14:01:19.452Z,38.00
2019-02-28T14:03:51.973Z,39.97
2019-02-28T14:06:26.944Z,40.57
2019-02-28T14:09:01.848Z,38.83
2019-02-28T14:11:41.768Z,40.23
2019-02-28T14:14:17.393Z,39.30
2019-02-28T14:16:52.398Z,41.00
2019-02-28T14:19:27.274Z,40.60
2019-02-28T14:22:03.033Z,38.13
2019-02-28T14:24:37.995Z,41.13
2019-02-28T14:27:12.982Z,43.43
2019-02-28T14:29:49.045Z,40.70
2019-02-28T14:32:24.032Z,40.60
2019-02-28T14:34:59.967Z,35.60
2019-02-28T14:37:35.740Z,38.70
2019-02-28T14:40:14.649Z,40.90
2019-02-28T14:42:50.068Z,42.37
2019-02-28T14:45:25.853Z,40.30
2019-02-28T14:48:03.913Z,38.33
2019-02-28T14:50:37.367Z,39.27
2019-02-28T14:53:14.424Z,40.83
2019-02-28T14:55:48.909Z,43.13
2019-02-28T14:58:23.807Z,43.80
2019-02-28T15:00:58.796Z,43.83
2019-02-28T15:03:36.850Z,43.73
2019-02-28T15:06:11.854Z,44.37
2019-02-28T15:08:47.416Z,41.50
2019-02-28T15:11:23.787Z,44.63
2019-02-28T15:13:59.588Z,42.97
2019-02-28T15:16:35.327Z,45.43
2019-02-28T15:19:10.575Z,43.60
2019-02-28T15:21:45.368Z,48.17
2019-02-28T15:24:20.295Z,48.10
2019-02-28T15:26:55.219Z,44.73
2019-02-28T15:29:30.165Z,40.17
2019-02-28T15:32:05.177Z,43.97
2019-02-28T15:34:42.933Z,45.63
2019-02-28T15:37:17.847Z,46.60
2019-02-28T15:39:52.801Z,44.60
2019-02-28T15:42:27.713Z,44.10
2019-02-28T15:45:03.996Z,44.27
2019-02-28T15:47:40.123Z,43.23
2019-02-28T15:50:16.305Z,40.80
2019-02-28T15:52:55.825Z,44.13
2019-02-28T15:55:30.903Z,43.10
2019-02-28T15:58:06.968Z,42.60
2019-02-28T16:00:42.483Z,41.47
2019-02-28T16:03:18.436Z,43.63
2019-02-28T16:05:56.222Z,42.10
2019-02-28T16:08:31.293Z,44.40
2019-02-28T16:11:07.177Z,43.13
2019-02-28T16:13:42.182Z,46.10
2019-02-28T16:16:17.103Z,44.53
2019-02-28T16:18:52.029Z,42.63
2019-02-28T16:21:27.771Z,45.37
2019-02-28T16:24:05.094Z,43.73
2019-02-28T16:26:39.451Z,43.73
2019-02-28T16:29:15.241Z,43.87
2019-02-28T16:31:52.009Z,43.00
2019-02-28T16:34:26.884Z,41.43
2019-02-28T16:37:03.620Z,42.70
2019-02-28T16:39:39.773Z,41.77
2019-02-28T16:42:14.640Z,43.37
2019-02-28T16:44:49.620Z,42.60
2019-02-28T16:47:25.221Z,44.00
2019-02-28T16:50:00.367Z,41.50
2019-02-28T16:52:37.360Z,42.77
2019-02-28T16:55:12.154Z,42.27
2019-02-28T16:57:48.011Z,40.20
2019-02-28T17:00:23.189Z,41.17
2019-02-28T17:03:17.104Z,42.00
2019-02-28T17:05:58.448Z,42.57
2019-02-28T17:08:36.659Z,41.63
2019-02-28T17:11:14.684Z,42.33
2019-02-28T17:13:55.721Z,40.90
2019-02-28T17:16:37.061Z,41.13
2019-02-28T17:19:11.751Z,39.90
2019-02-28T17:21:48.628Z,40.03
2019-02-28T17:24:38.012Z,41.50
2019-02-28T17:27:33.065Z,37.80
2019-02-28T17:30:22.307Z,50.33
2019-02-28T17:32:58.648Z,42.40
2019-02-28T17:35:34.929Z,40.10
2019-02-28T17:38:09.973Z,40.30
2019-02-28T17:40:46.400Z,40.53
2019-02-28T17:43:24.417Z,38.23
2019-02-28T17:45:58.725Z,40.50
2019-02-28T17:49:55.947Z,42.00
2019-02-28T17:52:46.780Z,42.80
2019-02-28T17:56:26.627Z,40.77
2019-02-28T18:00:17.041Z,41.77
2019-02-28T18:03:44.981Z,42.17
2019-02-28T18:07:29.611Z,41.97
2019-02-28T18:11:05.786Z,43.43
2019-02-28T18:14:34.146Z,42.60
2019-02-28T18:18:08.894Z,46.93
2019-02-28T18:21:55.928Z,51.13
2019-02-28T18:25:51.972Z,48.27
2019-02-28T18:28:58.012Z,45.10
2019-02-28T18:31:32.529Z,43.23
2019-02-28T18:34:16.963Z,47.40
2019-02-28T18:36:52.535Z,46.70
2019-02-28T18:39:28.395Z,45.13
2019-02-28T18:42:04.134Z,48.30
2019-02-28T18:44:41.236Z,45.33
2019-02-28T18:47:17.024Z,46.30
2019-02-28T18:49:52.002Z,46.43
2019-02-28T18:52:27.120Z,46.80
2019-02-28T18:55:06.155Z,43.70
2019-02-28T18:57:38.781Z,47.50
2019-02-28T19:00:17.454Z,47.97
2019-02-28T19:02:52.737Z,45.30
2019-02-28T19:05:38.020Z,46.90
2019-02-28T19:08:13.002Z,48.83
2019-02-28T19:10:48.060Z,43.37
2019-02-28T19:13:23.022Z,54.33
2019-02-28T19:15:58.021Z,64.57
2019-02-28T19:18:33.623Z,56.17
2019-02-28T19:21:08.613Z,68.27
2019-02-28T19:23:43.647Z,62.90
2019-02-28T19:26:19.447Z,57.77
2019-02-28T19:28:54.746Z,64.67
2019-02-28T19:31:29.768Z,63.30
2019-02-28T19:34:04.742Z,59.50
2019-02-28T19:36:39.688Z,53.67
2019-02-28T19:39:14.654Z,54.17
2019-02-28T19:41:49.598Z,55.10
2019-02-28T19:44:27.561Z,54.87
2019-02-28T19:47:03.994Z,61.27
2019-02-28T19:49:39.031Z,57.70
2019-02-28T19:52:14.320Z,56.20
2019-02-28T19:54:50.166Z,57.63
2019-02-28T19:57:26.024Z,54.10
2019-02-28T20:00:01.133Z,54.83
2019-02-28T20:02:37.523Z,57.47
2019-02-28T20:05:13.224Z,51.63
2019-02-28T20:07:48.188Z,50.73
2019-02-28T20:10:23.298Z,50.50
2019-02-28T20:12:58.808Z,52.83
2019-02-28T20:18:32.396Z,55.53
2019-02-28T20:21:07.495Z,52.17
2019-02-28T20:23:42.536Z,54.00
2019-02-28T20:26:18.566Z,58.90
2019-02-28T20:28:53.434Z,60.47
2019-02-28T20:31:28.422Z,58.50
2019-02-28T20:34:03.291Z,55.60
2019-02-28T20:36:39.746Z,55.53
2019-02-28T20:39:15.294Z,54.67
2019-02-28T20:41:50.295Z,58.77
2019-02-28T20:44:25.831Z,56.50
2019-02-28T20:47:00.790Z,55.57
2019-02-28T20:49:35.761Z,56.07
2019-02-28T20:52:11.525Z,55.37
2019-02-28T20:54:46.415Z,55.37
2019-02-28T20:57:21.408Z,54.30
2019-02-28T20:59:56.394Z,56.83
2019-02-28T21:02:31.326Z,55.43
2019-02-28T21:05:07.575Z,56.37
2019-02-28T21:07:42.742Z,58.43
2019-02-28T21:10:18.396Z,57.80
2019-02-28T21:12:53.397Z,58.47
2019-02-28T21:15:29.283Z,60.00
2019-02-28T21:18:04.270Z,53.27
2019-02-28T21:20:42.355Z,54.87
2019-02-28T21:23:19.606Z,55.97
2019-02-28T21:25:57.223Z,55.50
2019-02-28T21:28:32.598Z,52.80
2019-02-28T21:31:07.563Z,52.30
2019-02-28T21:33:42.672Z,57.67
2019-02-28T21:36:17.593Z,54.50
2019-02-28T21:38:52.571Z,52.23
2019-02-28T21:41:27.537Z,48.90
2019-02-28T21:44:03.089Z,51.27
2019-02-28T21:46:39.153Z,49.77
2019-02-28T21:49:14.202Z,46.60
2019-02-28T21:51:49.186Z,49.50
2019-02-28T21:54:26.309Z,46.57
2019-02-28T21:57:01.380Z,48.23
2019-02-28T21:59:37.835Z,44.30
2019-02-28T22:02:12.718Z,47.37
2019-02-28T22:04:47.743Z,50.50
2019-02-28T22:07:22.701Z,46.17
2019-02-28T22:09:57.706Z,49.60
2019-02-28T22:12:33.468Z,47.43
2019-02-28T22:15:11.223Z,46.80
2019-02-28T22:17:46.292Z,48.37
2019-02-28T22:20:21.197Z,46.20
2019-02-28T22:22:56.102Z,49.00
2019-02-28T22:25:30.927Z,48.40
2019-02-28T22:28:05.811Z,47.97
2019-02-28T22:31:02.847Z,48.90
2019-02-28T22:33:56.776Z,48.27
2019-02-28T22:36:35.995Z,46.13
2019-02-28T22:39:11.977Z,48.07
2019-02-28T22:41:46.861Z,48.27
2019-02-28T22:44:21.758Z,48.67
2019-02-28T22:46:57.244Z,49.43
2019-02-28T22:49:33.697Z,49.87
2019-02-28T22:52:08.510Z,49.97
2019-02-28T22:54:43.418Z,46.57
2019-02-28T22:57:18.354Z,50.50
2019-02-28T22:59:53.263Z,49.07
2019-02-28T23:02:30.731Z,44.33
2019-02-28T23:05:05.832Z,44.03
2019-02-28T23:07:40.787Z,48.50
2019-02-28T23:10:15.754Z,47.07
2019-02-28T23:12:50.688Z,50.37
2019-02-28T23:15:25.541Z,48.80
2019-02-28T23:18:00.507Z,45.47
2019-02-28T23:20:37.245Z,48.57
2019-02-28T23:23:13.295Z,46.97
2019-02-28T23:25:48.239Z,45.30
2019-02-28T23:28:32.887Z,46.87
2019-02-28T23:32:12.325Z,49.07
2019-02-28T23:34:52.032Z,47.83
2019-02-28T23:37:26.945Z,48.00
2019-02-28T23:40:02.066Z,51.20
2019-02-28T23:42:38.965Z,48.23
2019-02-28T23:45:13.859Z,48.67
2019-02-28T23:47:48.743Z,50.10
2019-02-28T23:50:23.619Z,47.70
2019-02-28T23:52:58.462Z,49.30
2019-02-28T23:55:33.505Z,50.00
2019-02-28T23:58:08.467Z,48.10
